DNMM/LOS METAR and TAF weather

Enter ICAO airport designator
Station Type Date Time Source
DNMM METAR 2021/01/22 04:00 UTC NOAA

DNMM 220400Z 03004KT 4000 HZ NSC 23/22 Q1011 TEMPO 3000


Station Type Date Time Source
DNMM Decoded METAR 2021/01/22 04:00 UTC NOAA

Lagos / Ikeja, Nigeria (DNMM) 06-35N 003-20E 38M
Jan 21, 2021 - 11:00 PM EST / 2021.01.22 0400 UTC
Wind: from the NNE (030 degrees) at 5 MPH (4 KT):0
Visibility: 2 mile(s):0
Weather: haze
Temperature: 73 F (23 C)
Dew Point: 71 F (22 C)
Relative Humidity: 94%
Pressure (altimeter): 29.85 in. Hg (1011 hPa)
ob: DNMM 220400Z 03004KT 4000 HZ NSC 23/22 Q1011 TEMPO 3000
cycle: 4

Station Type Date Time Source
DNMM TAF 2021/01/21 18:33 UTC NOAA

TAF TAF DNMM 211700Z 2118/2224 17003KT 4000 HZ NSC PROB30 2206/2207 3000 BR
BECMG 2207/2209 07010KT 3000

Example: see airport list